createdAt,value
2022-11-19T00:00:01.004Z,36.50
2022-11-19T00:02:32.713Z,35.60
2022-11-19T00:05:04.489Z,34.20
2022-11-19T00:07:36.284Z,37.40
2022-11-19T00:10:11.900Z,37.60
2022-11-19T00:12:55.746Z,51.30
2022-11-19T00:15:27.505Z,56.50
2022-11-19T00:18:00.611Z,55.90
2022-11-19T00:20:34.119Z,47.20
2022-11-19T00:23:05.870Z,43.70
2022-11-19T00:25:37.444Z,38.90
2022-11-19T00:28:09.769Z,39.60
2022-11-19T00:30:48.223Z,37.30
2022-11-19T00:33:20.332Z,35.20
2022-11-19T00:35:51.955Z,32.70
2022-11-19T00:38:23.591Z,32.40
2022-11-19T00:40:55.256Z,35.70
2022-11-19T00:43:46.342Z,33.00
2022-11-19T00:46:19.447Z,37.60
2022-11-19T00:48:52.554Z,30.50
2022-11-19T00:51:25.898Z,38.60
2022-11-19T00:53:58.606Z,27.30
2022-11-19T00:56:30.697Z,30.10
2022-11-19T00:59:02.429Z,29.50
2022-11-19T01:01:34.211Z,30.60
2022-11-19T01:04:06.358Z,29.20
2022-11-19T01:06:38.247Z,30.90
2022-11-19T01:09:10.103Z,33.10
2022-11-19T01:11:41.899Z,34.50
2022-11-19T01:14:13.584Z,38.40
2022-11-19T01:16:45.235Z,38.10
2022-11-19T01:19:17.616Z,31.30
2022-11-19T01:21:49.648Z,33.10
2022-11-19T01:24:21.308Z,31.70
2022-11-19T01:26:52.911Z,32.80
2022-11-19T01:29:24.578Z,39.60
2022-11-19T01:31:56.131Z,34.90
2022-11-19T01:34:27.932Z,33.70
2022-11-19T01:36:59.549Z,32.30
2022-11-19T01:39:31.473Z,32.70
2022-11-19T01:42:03.084Z,37.30
2022-11-19T01:45:06.767Z,36.00
2022-11-19T01:47:38.395Z,36.50
2022-11-19T01:50:14.922Z,37.10
2022-11-19T01:52:46.728Z,34.40
2022-11-19T01:55:19.929Z,34.30
2022-11-19T01:57:57.508Z,32.30
2022-11-19T02:00:29.785Z,31.00
2022-11-19T02:03:01.606Z,32.20
2022-11-19T02:05:34.279Z,32.40
2022-11-19T02:08:10.231Z,38.10
2022-11-19T02:10:54.329Z,42.50
2022-11-19T02:13:31.387Z,43.70
2022-11-19T02:16:09.880Z,43.80
2022-11-19T02:18:50.518Z,38.20
2022-11-19T02:21:30.870Z,38.60
2022-11-19T02:24:26.635Z,42.50
2022-11-19T02:27:22.209Z,43.80
2022-11-19T02:30:13.516Z,40.10
2022-11-19T02:35:29.828Z,39.50
2022-11-19T02:38:05.790Z,36.70
2022-11-19T02:40:40.490Z,35.00
2022-11-19T02:43:18.856Z,41.70
2022-11-19T02:45:54.441Z,34.60
2022-11-19T02:48:32.325Z,30.70
2022-11-19T02:51:06.041Z,31.80
2022-11-19T02:53:37.930Z,31.20
2022-11-19T02:56:52.957Z,35.90
2022-11-19T02:59:46.824Z,33.60
2022-11-19T03:02:39.929Z,35.60
2022-11-19T03:05:17.287Z,42.10
2022-11-19T03:07:50.635Z,38.40
2022-11-19T03:10:28.560Z,37.60
2022-11-19T03:13:29.834Z,35.40
2022-11-19T03:18:56.424Z,37.80
2022-11-19T03:21:35.305Z,37.70
2022-11-19T03:24:09.451Z,34.70
2022-11-19T03:26:47.155Z,35.30
2022-11-19T03:29:19.536Z,35.80
2022-11-19T03:31:55.554Z,36.50
2022-11-19T03:34:30.512Z,35.80
2022-11-19T03:37:06.133Z,33.00
2022-11-19T03:39:39.742Z,37.60
2022-11-19T03:42:16.178Z,36.20
2022-11-19T03:44:52.993Z,43.80
2022-11-19T03:47:28.418Z,38.20
2022-11-19T03:50:03.885Z,41.90
2022-11-19T03:52:35.577Z,35.30
2022-11-19T03:55:08.148Z,34.60
2022-11-19T03:57:40.265Z,34.30
2022-11-19T04:00:21.894Z,31.20
2022-11-19T04:02:53.532Z,33.70
2022-11-19T04:05:25.379Z,32.90
2022-11-19T04:07:57.176Z,29.40
2022-11-19T04:10:30.133Z,31.10
2022-11-19T04:13:01.964Z,31.20
2022-11-19T04:15:33.539Z,25.90
2022-11-19T04:18:05.375Z,24.40
2022-11-19T04:20:37.110Z,24.80
2022-11-19T04:23:08.759Z,26.10
2022-11-19T04:25:41.474Z,27.90
2022-11-19T04:28:13.086Z,24.70
2022-11-19T04:30:45.107Z,29.70
2022-11-19T04:33:16.728Z,31.60
2022-11-19T04:35:48.854Z,31.00
2022-11-19T04:38:20.620Z,32.30
2022-11-19T04:40:52.201Z,28.80
2022-11-19T04:43:23.924Z,31.70
2022-11-19T04:45:55.545Z,26.10
2022-11-19T04:48:27.259Z,23.50
2022-11-19T04:50:58.874Z,29.00
2022-11-19T04:53:30.501Z,26.50
2022-11-19T04:56:02.080Z,27.10
2022-11-19T04:58:33.805Z,26.10
2022-11-19T05:01:06.861Z,27.70
2022-11-19T05:03:38.570Z,26.30
2022-11-19T05:06:11.044Z,27.00
2022-11-19T05:08:42.885Z,24.80
2022-11-19T05:11:14.561Z,27.50
2022-11-19T05:13:46.374Z,33.50
2022-11-19T05:16:18.028Z,34.70
2022-11-19T05:18:49.672Z,36.30
2022-11-19T05:21:21.334Z,42.70
2022-11-19T05:23:53.200Z,43.30
2022-11-19T05:26:24.825Z,41.70
2022-11-19T05:28:56.460Z,39.80
2022-11-19T05:31:28.063Z,36.00
2022-11-19T05:33:59.701Z,34.80
2022-11-19T05:36:31.304Z,28.50
2022-11-19T05:39:02.928Z,35.30
2022-11-19T05:41:34.596Z,37.40
2022-11-19T05:44:06.940Z,36.10
2022-11-19T05:46:45.096Z,35.60
2022-11-19T05:49:18.710Z,33.20
2022-11-19T05:51:50.517Z,34.20
2022-11-19T05:54:22.208Z,39.20
2022-11-19T05:56:53.916Z,36.50
2022-11-19T05:59:25.794Z,37.20
2022-11-19T06:01:57.498Z,35.30
2022-11-19T06:04:29.118Z,39.70
2022-11-19T06:07:00.854Z,36.10
2022-11-19T06:09:32.706Z,40.20
2022-11-19T06:12:04.467Z,40.70
2022-11-19T06:14:36.353Z,47.30
2022-11-19T06:17:08.014Z,39.70
2022-11-19T06:19:39.698Z,42.00
2022-11-19T06:22:12.386Z,38.20
2022-11-19T06:24:44.099Z,40.30
2022-11-19T06:27:15.786Z,54.60
2022-11-19T06:29:51.062Z,48.30
2022-11-19T06:32:25.233Z,45.70
2022-11-19T06:34:56.951Z,41.90
2022-11-19T06:37:28.711Z,43.10
2022-11-19T06:40:00.409Z,57.70
2022-11-19T06:42:37.707Z,99.30
2022-11-19T06:45:12.796Z,78.90
2022-11-19T06:47:48.164Z,68.60
2022-11-19T06:50:24.143Z,55.40
2022-11-19T06:52:58.672Z,53.80
2022-11-19T06:55:30.359Z,44.20
2022-11-19T06:58:06.180Z,45.50
2022-11-19T07:00:41.529Z,36.10
2022-11-19T07:03:13.208Z,35.30
2022-11-19T07:05:44.987Z,35.60
2022-11-19T07:08:20.561Z,31.10
2022-11-19T07:10:52.837Z,32.70
2022-11-19T07:13:24.636Z,36.20
2022-11-19T07:15:57.950Z,35.00
2022-11-19T07:18:29.629Z,32.80
2022-11-19T07:21:01.262Z,32.20
2022-11-19T07:23:32.928Z,35.90
2022-11-19T07:26:05.059Z,32.70
2022-11-19T07:28:38.107Z,32.20
2022-11-19T07:31:10.439Z,34.10
2022-11-19T07:33:42.046Z,34.70
2022-11-19T07:36:18.371Z,35.00
2022-11-19T07:38:51.857Z,35.40
2022-11-19T07:41:40.852Z,34.60
2022-11-19T07:44:12.595Z,34.50
2022-11-19T07:46:47.609Z,34.10
2022-11-19T07:49:22.099Z,40.10
2022-11-19T07:51:54.147Z,43.90
2022-11-19T07:54:25.990Z,48.60
2022-11-19T07:56:57.720Z,41.80
2022-11-19T07:59:29.636Z,45.90
2022-11-19T08:02:03.048Z,43.30
2022-11-19T08:04:34.894Z,45.10
2022-11-19T08:07:06.881Z,34.90
2022-11-19T08:09:38.593Z,37.90
2022-11-19T08:12:10.457Z,34.30
2022-11-19T08:14:42.045Z,31.40
2022-11-19T08:17:31.710Z,27.50
2022-11-19T08:20:03.384Z,28.30
2022-11-19T08:22:36.002Z,33.20
2022-11-19T08:25:08.277Z,32.00
2022-11-19T08:27:39.948Z,27.80
2022-11-19T08:30:17.934Z,31.40
2022-11-19T08:32:49.641Z,28.10
2022-11-19T08:35:21.282Z,27.30
2022-11-19T08:37:52.918Z,29.40
2022-11-19T08:40:25.097Z,27.40
2022-11-19T08:43:02.478Z,33.00
2022-11-19T08:45:36.784Z,30.90
2022-11-19T08:48:10.623Z,31.80
2022-11-19T08:50:44.220Z,31.90
2022-11-19T08:53:15.859Z,30.40
2022-11-19T08:55:53.127Z,28.30
2022-11-19T08:58:24.811Z,30.00
2022-11-19T09:00:57.208Z,33.50
2022-11-19T09:03:28.930Z,32.60
2022-11-19T09:06:02.788Z,29.10
2022-11-19T09:08:35.241Z,31.00
2022-11-19T09:11:10.882Z,30.80
2022-11-19T09:13:42.929Z,32.30
2022-11-19T09:16:14.823Z,30.20
2022-11-19T09:18:46.478Z,32.40
2022-11-19T09:21:18.129Z,27.50
2022-11-19T09:23:49.802Z,27.10
2022-11-19T09:26:21.513Z,33.80
2022-11-19T09:28:53.338Z,29.40
2022-11-19T09:31:25.065Z,36.20
2022-11-19T09:33:56.986Z,37.40
2022-11-19T09:36:28.603Z,31.80
2022-11-19T09:39:02.218Z,28.70
2022-11-19T09:41:45.242Z,26.60
2022-11-19T09:44:30.040Z,23.70
2022-11-19T09:47:13.731Z,31.70
2022-11-19T09:49:48.260Z,31.00
2022-11-19T09:52:23.624Z,29.60
2022-11-19T09:54:58.458Z,27.10
2022-11-19T09:57:37.840Z,24.70
2022-11-19T10:00:22.608Z,21.90
2022-11-19T10:02:54.508Z,20.40
2022-11-19T10:05:31.555Z,21.10
2022-11-19T10:08:18.816Z,18.30
2022-11-19T10:10:58.573Z,20.60
2022-11-19T10:13:48.351Z,20.00
2022-11-19T10:16:42.448Z,17.90
2022-11-19T10:19:28.105Z,14.30
2022-11-19T10:22:08.253Z,19.10
2022-11-19T10:24:45.998Z,22.10
2022-11-19T10:27:27.229Z,21.10
2022-11-19T10:30:03.940Z,22.80
2022-11-19T10:32:40.089Z,18.60
2022-11-19T10:35:19.073Z,20.50
2022-11-19T10:37:57.331Z,21.60
2022-11-19T10:40:34.393Z,19.60
2022-11-19T10:43:23.364Z,14.00
2022-11-19T10:45:56.912Z,15.20
2022-11-19T10:48:38.838Z,17.60
2022-11-19T10:51:21.798Z,21.30
2022-11-19T10:53:55.688Z,17.00
2022-11-19T10:56:36.060Z,15.50
2022-11-19T10:59:13.991Z,18.20
2022-11-19T11:01:48.587Z,13.70
2022-11-19T11:04:22.787Z,12.90
2022-11-19T11:06:57.680Z,14.60
2022-11-19T11:09:35.032Z,12.80
2022-11-19T11:12:32.281Z,12.50
2022-11-19T11:15:15.913Z,15.20
2022-11-19T11:17:50.664Z,13.10
2022-11-19T11:20:29.585Z,11.80
2022-11-19T11:23:09.691Z,18.70
2022-11-19T11:25:42.605Z,12.00
2022-11-19T11:28:16.919Z,16.90
2022-11-19T11:30:56.922Z,16.60
2022-11-19T11:33:32.394Z,12.40
2022-11-19T11:36:07.520Z,10.60
2022-11-19T11:38:45.325Z,11.20
2022-11-19T11:42:03.398Z,13.90
2022-11-19T11:44:21.818Z,13.70
2022-11-19T11:46:55.473Z,11.20
2022-11-19T11:49:31.022Z,11.90
2022-11-19T11:52:17.890Z,15.90
2022-11-19T11:55:01.347Z,12.00
2022-11-19T11:57:35.043Z,8.90
2022-11-19T12:00:30.930Z,11.60
2022-11-19T12:03:07.512Z,11.50
2022-11-19T12:05:51.663Z,11.80
2022-11-19T12:08:40.625Z,13.40
2022-11-19T12:11:20.175Z,10.30
2022-11-19T12:14:11.245Z,10.90
2022-11-19T12:19:34.332Z,13.90
2022-11-19T12:22:15.519Z,13.20
2022-11-19T12:27:39.872Z,13.80
2022-11-19T12:30:24.463Z,15.10
2022-11-19T12:33:21.903Z,11.80
2022-11-19T12:36:05.899Z,13.80
2022-11-19T12:38:48.529Z,13.70
2022-11-19T12:41:48.194Z,16.40
2022-11-19T12:44:30.151Z,12.40
2022-11-19T12:47:11.077Z,14.30
2022-11-19T12:50:14.410Z,14.80
2022-11-19T12:53:03.402Z,18.50
2022-11-19T12:55:45.739Z,16.90
2022-11-19T12:58:25.732Z,16.10
2022-11-19T13:01:01.673Z,18.40
2022-11-19T13:03:49.400Z,16.90
2022-11-19T13:06:26.360Z,17.80
2022-11-19T13:09:03.048Z,16.50
2022-11-19T13:11:40.245Z,16.30
2022-11-19T13:14:20.772Z,18.10
2022-11-19T13:16:53.587Z,13.50
2022-11-19T13:19:28.808Z,13.10
2022-11-19T13:22:06.240Z,17.10
2022-11-19T13:24:43.706Z,15.10
2022-11-19T13:27:22.960Z,15.00
2022-11-19T13:30:01.980Z,13.60
2022-11-19T13:32:40.628Z,12.20
2022-11-19T13:35:21.646Z,13.00
2022-11-19T13:38:01.701Z,14.00
2022-11-19T13:40:38.282Z,13.60
2022-11-19T13:43:33.680Z,15.00
2022-11-19T13:46:18.214Z,12.50
2022-11-19T13:48:57.095Z,16.40
2022-11-19T13:51:34.364Z,16.10
2022-11-19T13:54:08.468Z,16.50
2022-11-19T13:56:50.704Z,18.30
2022-11-19T13:59:31.149Z,18.90
2022-11-19T14:02:34.869Z,19.00
2022-11-19T14:05:32.122Z,15.70
2022-11-19T14:08:15.225Z,16.90
2022-11-19T14:10:58.084Z,15.00
2022-11-19T14:13:48.277Z,14.50
2022-11-19T14:16:49.734Z,17.40
2022-11-19T14:22:50.067Z,16.30
2022-11-19T14:26:02.976Z,17.40
2022-11-19T14:28:45.421Z,17.90
2022-11-19T14:31:18.739Z,13.00
2022-11-19T14:34:04.234Z,10.80
2022-11-19T14:36:47.972Z,12.40
2022-11-19T14:39:24.754Z,18.40
2022-11-19T14:42:15.084Z,14.50
2022-11-19T14:44:47.623Z,13.40
2022-11-19T14:47:35.152Z,14.60
2022-11-19T14:50:12.633Z,18.80
2022-11-19T14:52:55.516Z,17.30
2022-11-19T14:55:29.432Z,20.80
2022-11-19T14:58:04.724Z,20.90
2022-11-19T15:00:38.539Z,18.20
2022-11-19T15:03:16.522Z,16.20
2022-11-19T15:05:49.144Z,15.90
2022-11-19T15:08:49.513Z,14.80
2022-11-19T15:11:21.529Z,16.70
2022-11-19T15:14:31.120Z,16.40
2022-11-19T15:17:07.368Z,15.30
2022-11-19T15:19:48.396Z,17.80
2022-11-19T15:22:31.795Z,16.20
2022-11-19T15:25:28.057Z,17.90
2022-11-19T15:28:07.250Z,18.00
2022-11-19T15:30:53.665Z,16.80
2022-11-19T15:33:59.081Z,14.20
2022-11-19T15:36:39.834Z,13.90
2022-11-19T15:39:16.618Z,14.70
2022-11-19T15:42:01.454Z,16.40
2022-11-19T15:44:40.796Z,14.80
2022-11-19T15:47:19.482Z,12.30
2022-11-19T15:49:54.140Z,12.40
2022-11-19T15:52:30.783Z,14.90
2022-11-19T15:55:18.889Z,17.70
2022-11-19T15:57:56.051Z,15.30
2022-11-19T16:00:28.951Z,16.00
2022-11-19T16:03:02.072Z,14.80
2022-11-19T16:05:34.094Z,14.90
2022-11-19T16:08:12.166Z,18.70
2022-11-19T16:10:47.407Z,18.00
2022-11-19T16:13:46.888Z,20.10
2022-11-19T16:16:41.654Z,21.80
2022-11-19T16:19:16.440Z,20.70
2022-11-19T16:21:52.044Z,22.60
2022-11-19T16:24:42.808Z,25.70
2022-11-19T16:27:21.610Z,26.00
2022-11-19T16:29:53.730Z,24.80
2022-11-19T16:32:28.640Z,29.50
2022-11-19T16:35:13.402Z,35.30
2022-11-19T16:37:45.252Z,35.10
2022-11-19T16:40:24.829Z,29.10
2022-11-19T16:43:00.550Z,24.20
2022-11-19T16:45:33.651Z,22.50
2022-11-19T16:48:05.417Z,19.00
2022-11-19T16:50:43.822Z,18.10
2022-11-19T16:53:47.131Z,20.20
2022-11-19T16:56:18.838Z,18.60
2022-11-19T16:58:53.747Z,18.10
2022-11-19T17:01:29.445Z,19.60
2022-11-19T17:04:07.043Z,16.90
2022-11-19T17:06:43.718Z,16.90
2022-11-19T17:09:35.024Z,23.60
2022-11-19T17:12:25.839Z,24.90
2022-11-19T17:15:00.133Z,18.70
2022-11-19T17:17:43.047Z,18.10
2022-11-19T17:21:00.111Z,17.10
2022-11-19T17:23:34.047Z,14.90
2022-11-19T17:26:08.089Z,18.50
2022-11-19T17:28:46.750Z,18.20
2022-11-19T17:31:22.442Z,16.70
2022-11-19T17:33:56.070Z,18.50
2022-11-19T17:36:27.903Z,16.40
2022-11-19T17:38:59.884Z,14.70
2022-11-19T17:41:49.487Z,16.20
2022-11-19T17:44:39.439Z,16.20
2022-11-19T17:47:24.382Z,14.50
2022-11-19T17:49:56.406Z,14.90
2022-11-19T17:52:31.032Z,17.00
2022-11-19T17:55:12.837Z,16.20
2022-11-19T17:57:44.497Z,18.50
2022-11-19T18:03:17.827Z,16.20
2022-11-19T18:05:50.819Z,17.60
2022-11-19T18:08:24.913Z,21.90
2022-11-19T18:10:57.037Z,19.30
2022-11-19T18:13:30.590Z,18.10
2022-11-19T18:16:02.232Z,19.30
2022-11-19T18:18:33.907Z,16.60
2022-11-19T18:21:06.306Z,16.50
2022-11-19T18:23:38.196Z,16.50
2022-11-19T18:26:11.800Z,18.90
2022-11-19T18:28:48.598Z,20.20
2022-11-19T18:31:26.215Z,21.00
2022-11-19T18:33:58.702Z,18.40
2022-11-19T18:36:30.350Z,18.40
2022-11-19T18:39:02.004Z,16.30
2022-11-19T18:41:33.656Z,20.60
2022-11-19T18:44:23.372Z,19.10
2022-11-19T18:46:55.028Z,20.80
2022-11-19T18:49:26.824Z,22.90
2022-11-19T18:51:58.716Z,16.00
2022-11-19T18:54:30.660Z,16.10
2022-11-19T18:57:02.639Z,17.70
2022-11-19T18:59:36.128Z,18.00
2022-11-19T19:02:08.043Z,14.80
2022-11-19T19:04:39.972Z,19.10
2022-11-19T19:07:11.833Z,24.80
2022-11-19T19:09:43.701Z,20.10
2022-11-19T19:12:21.708Z,20.20
2022-11-19T19:14:53.592Z,19.00
2022-11-19T19:17:25.256Z,18.90
2022-11-19T19:19:56.947Z,21.70
2022-11-19T19:22:29.551Z,17.10
2022-11-19T19:25:02.582Z,18.70
2022-11-19T19:27:36.573Z,14.80
2022-11-19T19:30:23.342Z,16.10
2022-11-19T19:32:57.697Z,16.80
2022-11-19T19:35:29.367Z,15.40
2022-11-19T19:38:01.083Z,16.20
2022-11-19T19:40:33.167Z,15.60
2022-11-19T19:43:06.259Z,15.00
2022-11-19T19:45:38.353Z,16.80
2022-11-19T19:48:10.436Z,19.00
2022-11-19T19:50:50.565Z,13.90
2022-11-19T19:53:25.238Z,18.20
2022-11-19T19:56:05.476Z,14.70
2022-11-19T19:58:38.280Z,15.80
2022-11-19T20:01:12.347Z,14.30
2022-11-19T20:03:44.863Z,14.30
2022-11-19T20:06:18.505Z,16.90
2022-11-19T20:08:50.572Z,17.20
2022-11-19T20:11:25.782Z,14.60
2022-11-19T20:13:59.041Z,14.80
2022-11-19T20:16:32.787Z,16.10
2022-11-19T20:19:07.288Z,15.70
2022-11-19T20:21:39.988Z,14.60
2022-11-19T20:24:13.732Z,16.20
2022-11-19T20:26:45.970Z,19.80
2022-11-19T20:29:20.523Z,15.80
2022-11-19T20:31:59.020Z,14.40
2022-11-19T20:34:31.096Z,15.90
2022-11-19T20:37:03.234Z,14.20
2022-11-19T20:39:35.069Z,14.70
2022-11-19T20:42:24.851Z,13.90
2022-11-19T20:44:56.588Z,17.10
2022-11-19T20:47:28.667Z,18.80
2022-11-19T20:50:00.490Z,13.50
2022-11-19T20:52:32.506Z,17.10
2022-11-19T20:55:06.845Z,14.80
2022-11-19T20:57:38.845Z,21.00
2022-11-19T21:00:13.367Z,20.80
2022-11-19T21:02:45.430Z,17.20
2022-11-19T21:05:17.438Z,19.40
2022-11-19T21:07:49.314Z,20.80
2022-11-19T21:10:24.419Z,18.40
2022-11-19T21:13:05.192Z,21.90
2022-11-19T21:15:37.790Z,20.90
2022-11-19T21:18:09.777Z,24.60
2022-11-19T21:20:41.442Z,25.60
2022-11-19T21:23:13.198Z,29.90
2022-11-19T21:25:46.307Z,25.20
2022-11-19T21:28:17.999Z,29.70
2022-11-19T21:30:55.547Z,26.40
2022-11-19T21:33:27.691Z,26.70
2022-11-19T21:36:01.178Z,24.60
2022-11-19T21:38:33.711Z,29.60
2022-11-19T21:41:06.780Z,22.90
2022-11-19T21:43:41.520Z,19.30
2022-11-19T21:46:13.532Z,18.90
2022-11-19T21:48:45.293Z,18.90
2022-11-19T21:51:21.463Z,19.60
2022-11-19T21:53:57.269Z,21.00
2022-11-19T21:56:33.885Z,22.00
2022-11-19T21:59:08.964Z,22.90
2022-11-19T22:01:42.694Z,19.60
2022-11-19T22:04:15.539Z,29.10
2022-11-19T22:06:47.455Z,27.30
2022-11-19T22:09:19.536Z,23.10
2022-11-19T22:11:51.302Z,25.50
2022-11-19T22:14:24.017Z,20.80
2022-11-19T22:16:55.647Z,19.50
2022-11-19T22:19:29.351Z,22.60
2022-11-19T22:22:01.181Z,25.30
2022-11-19T22:24:33.121Z,23.90
2022-11-19T22:27:04.978Z,24.70
2022-11-19T22:29:36.662Z,32.40
2022-11-19T22:32:08.702Z,25.90
2022-11-19T22:34:40.615Z,28.50
2022-11-19T22:37:12.382Z,22.00
2022-11-19T22:39:44.510Z,25.90
2022-11-19T22:42:16.181Z,22.00
2022-11-19T22:44:47.874Z,20.50
2022-11-19T22:47:19.786Z,22.50
2022-11-19T22:49:51.447Z,20.90
2022-11-19T22:52:23.598Z,21.70
2022-11-19T22:54:55.292Z,22.00
2022-11-19T22:57:27.848Z,21.10
2022-11-19T22:59:59.581Z,24.80
2022-11-19T23:03:10.419Z,23.30
2022-11-19T23:05:42.753Z,24.80
2022-11-19T23:08:14.585Z,19.50
2022-11-19T23:10:52.959Z,18.00
2022-11-19T23:13:33.778Z,21.90
2022-11-19T23:16:10.069Z,20.60
2022-11-19T23:18:43.871Z,19.70
2022-11-19T23:21:18.097Z,16.80
2022-11-19T23:23:50.168Z,17.30
2022-11-19T23:26:24.032Z,19.10
2022-11-19T23:28:56.629Z,16.50
2022-11-19T23:31:33.760Z,20.00
2022-11-19T23:34:06.072Z,19.50
2022-11-19T23:36:39.380Z,16.70
2022-11-19T23:39:16.973Z,18.00
2022-11-19T23:41:48.818Z,17.70
2022-11-19T23:44:21.870Z,19.20
2022-11-19T23:46:53.881Z,18.40
2022-11-19T23:49:25.987Z,20.50
2022-11-19T23:51:57.826Z,17.20
2022-11-19T23:54:29.635Z,17.40
2022-11-19T23:57:01.971Z,16.90
2022-11-19T23:59:33.992Z,18.60
